createdAt,value
2022-10-13T00:01:32.943Z,11.10
2022-10-13T00:04:02.726Z,11.00
2022-10-13T00:06:32.539Z,11.00
2022-10-13T00:09:02.623Z,11.00
2022-10-13T00:11:33.495Z,11.00
2022-10-13T00:14:05.231Z,11.00
2022-10-13T00:16:37.619Z,11.00
2022-10-13T00:19:09.758Z,11.00
2022-10-13T00:21:42.842Z,11.00
2022-10-13T00:24:14.367Z,10.90
2022-10-13T00:26:44.177Z,11.00
2022-10-13T00:29:13.896Z,10.90
2022-10-13T00:31:46.303Z,10.90
2022-10-13T00:34:16.019Z,11.00
2022-10-13T00:36:45.748Z,11.10
2022-10-13T00:39:15.491Z,11.20
2022-10-13T00:41:45.270Z,11.20
2022-10-13T00:44:44.924Z,11.20
2022-10-13T00:47:17.273Z,11.20
2022-10-13T00:49:47.463Z,11.30
2022-10-13T00:52:19.808Z,11.20
2022-10-13T00:54:51.143Z,11.20
2022-10-13T00:57:22.982Z,11.20
2022-10-13T00:59:53.533Z,11.20
2022-10-13T01:02:30.340Z,11.20
2022-10-13T01:05:01.921Z,11.20
2022-10-13T01:07:32.409Z,11.20
2022-10-13T01:10:02.807Z,11.20
2022-10-13T01:12:47.028Z,11.20
2022-10-13T01:15:24.892Z,11.20
2022-10-13T01:18:05.129Z,11.20
2022-10-13T01:20:55.585Z,11.20
2022-10-13T01:24:00.063Z,11.30
2022-10-13T01:27:12.104Z,11.30
2022-10-13T01:30:17.592Z,11.30
2022-10-13T01:33:02.743Z,11.10
2022-10-13T01:35:35.958Z,11.00
2022-10-13T01:38:10.809Z,10.90
2022-10-13T01:40:45.540Z,11.00
2022-10-13T01:43:22.150Z,10.90
2022-10-13T01:45:57.653Z,10.90
2022-10-13T01:48:31.468Z,10.80
2022-10-13T01:51:03.248Z,10.90
2022-10-13T01:53:33.416Z,10.90
2022-10-13T01:56:03.713Z,11.00
2022-10-13T01:58:36.510Z,11.00
2022-10-13T02:01:28.934Z,11.00
2022-10-13T02:04:13.038Z,11.10
2022-10-13T02:06:48.297Z,11.20
2022-10-13T02:09:25.274Z,11.30
2022-10-13T02:12:01.343Z,11.30
2022-10-13T02:14:34.893Z,11.30
2022-10-13T02:17:07.765Z,11.40
2022-10-13T02:19:41.753Z,11.40
2022-10-13T02:22:14.449Z,11.50
2022-10-13T02:24:44.599Z,11.50
2022-10-13T02:27:14.674Z,11.60
2022-10-13T02:29:55.476Z,11.60
2022-10-13T02:32:25.808Z,11.70
2022-10-13T02:34:58.177Z,11.70
2022-10-13T02:37:28.013Z,11.70
2022-10-13T02:39:57.746Z,11.70
2022-10-13T02:42:27.595Z,11.70
2022-10-13T02:44:57.326Z,11.70
2022-10-13T02:47:27.155Z,11.70
2022-10-13T02:49:59.465Z,11.80
2022-10-13T02:52:29.243Z,11.80
2022-10-13T02:54:59.062Z,11.80
2022-10-13T02:57:28.878Z,11.80
2022-10-13T02:59:58.626Z,11.70
2022-10-13T03:02:30.024Z,11.80
2022-10-13T03:05:02.351Z,11.80
2022-10-13T03:07:32.095Z,11.80
2022-10-13T03:10:01.826Z,11.80
2022-10-13T03:12:31.594Z,11.80
2022-10-13T03:15:01.333Z,11.70
2022-10-13T03:17:31.231Z,11.70
2022-10-13T03:20:03.641Z,11.70
2022-10-13T03:22:34.668Z,11.70
2022-10-13T03:25:04.393Z,11.70
2022-10-13T03:27:34.379Z,11.70
2022-10-13T03:30:04.195Z,11.70
2022-10-13T03:32:34.224Z,11.70
2022-10-13T03:35:07.588Z,11.70
2022-10-13T03:37:37.403Z,11.70
2022-10-13T03:40:08.436Z,11.70
2022-10-13T03:42:39.222Z,11.70
2022-10-13T03:45:10.721Z,11.60
2022-10-13T03:47:40.762Z,11.70
2022-10-13T03:50:13.846Z,11.60
2022-10-13T03:52:43.565Z,11.60
2022-10-13T03:55:13.366Z,11.60
2022-10-13T03:57:43.093Z,11.60
2022-10-13T04:00:14.997Z,11.60
2022-10-13T04:02:44.735Z,11.60
2022-10-13T04:05:17.213Z,11.70
2022-10-13T04:07:47.000Z,11.70
2022-10-13T04:10:16.893Z,11.80
2022-10-13T04:12:46.700Z,11.80
2022-10-13T04:15:16.517Z,11.80
2022-10-13T04:17:46.371Z,11.80
2022-10-13T04:20:18.945Z,11.90
2022-10-13T04:22:48.790Z,11.90
2022-10-13T04:25:18.672Z,11.90
2022-10-13T04:27:48.595Z,11.90
2022-10-13T04:30:18.563Z,11.90
2022-10-13T04:32:48.297Z,11.90
2022-10-13T04:35:20.654Z,11.90
2022-10-13T04:37:50.388Z,11.90
2022-10-13T04:40:20.193Z,11.80
2022-10-13T04:42:50.341Z,11.90
2022-10-13T04:45:20.887Z,11.80
2022-10-13T04:47:50.757Z,11.80
2022-10-13T04:50:23.246Z,11.80
2022-10-13T04:52:52.995Z,11.80
2022-10-13T04:55:22.730Z,11.70
2022-10-13T04:57:52.463Z,11.70
2022-10-13T05:00:22.404Z,11.70
2022-10-13T05:02:52.331Z,11.70
2022-10-13T05:05:24.661Z,11.60
2022-10-13T05:07:54.405Z,11.50
2022-10-13T05:10:24.150Z,11.50
2022-10-13T05:12:56.058Z,11.50
2022-10-13T05:15:25.854Z,11.50
2022-10-13T05:17:55.626Z,11.50
2022-10-13T05:20:28.013Z,11.50
2022-10-13T05:22:57.977Z,11.50
2022-10-13T05:25:31.541Z,11.50
2022-10-13T05:28:03.891Z,11.50
2022-10-13T05:30:33.690Z,11.60
2022-10-13T05:33:03.510Z,11.60
2022-10-13T05:35:35.839Z,11.60
2022-10-13T05:38:05.686Z,11.60
2022-10-13T05:40:35.424Z,11.70
2022-10-13T05:43:05.188Z,11.80
2022-10-13T05:45:36.011Z,11.80
2022-10-13T05:48:05.788Z,11.80
2022-10-13T05:50:38.302Z,11.90
2022-10-13T05:53:08.183Z,11.80
2022-10-13T05:55:37.948Z,11.90
2022-10-13T05:58:07.843Z,11.90
2022-10-13T06:00:37.744Z,11.90
2022-10-13T06:03:13.718Z,12.00
2022-10-13T06:05:47.837Z,12.00
2022-10-13T06:08:18.052Z,11.90
2022-10-13T06:10:48.241Z,12.00
2022-10-13T06:13:17.996Z,12.00
2022-10-13T06:15:47.766Z,12.00
2022-10-13T06:18:17.537Z,11.90
2022-10-13T06:20:49.868Z,12.00
2022-10-13T06:23:19.663Z,12.00
2022-10-13T06:25:53.304Z,12.10
2022-10-13T06:28:23.717Z,12.10
2022-10-13T06:30:57.131Z,12.00
2022-10-13T06:33:27.582Z,12.00
2022-10-13T06:36:03.224Z,12.10
2022-10-13T06:38:33.025Z,12.20
2022-10-13T06:41:03.811Z,12.20
2022-10-13T06:43:39.934Z,12.30
2022-10-13T06:46:10.882Z,12.30
2022-10-13T06:48:41.167Z,12.30
2022-10-13T06:51:15.347Z,12.40
2022-10-13T06:53:45.208Z,12.40
2022-10-13T06:56:15.082Z,12.50
2022-10-13T06:58:44.901Z,12.50
2022-10-13T07:01:15.882Z,12.60
2022-10-13T07:03:45.730Z,12.70
2022-10-13T07:06:18.091Z,12.70
2022-10-13T07:08:47.907Z,12.70
2022-10-13T07:11:18.672Z,12.80
2022-10-13T07:13:48.480Z,12.80
2022-10-13T07:16:18.757Z,12.70
2022-10-13T07:18:50.004Z,12.90
2022-10-13T07:21:22.845Z,13.00
2022-10-13T07:23:52.569Z,12.90
2022-10-13T07:26:22.599Z,12.90
2022-10-13T07:28:52.701Z,13.00
2022-10-13T07:31:23.630Z,13.00
2022-10-13T07:33:53.923Z,13.00
2022-10-13T07:36:27.474Z,13.00
2022-10-13T07:38:58.493Z,13.00
2022-10-13T07:41:28.258Z,13.10
2022-10-13T07:43:58.248Z,13.30
2022-10-13T07:46:29.801Z,13.50
2022-10-13T07:48:59.774Z,13.70
2022-10-13T07:51:32.109Z,13.70
2022-10-13T07:54:01.949Z,13.90
2022-10-13T07:56:31.671Z,13.90
2022-10-13T07:59:01.465Z,14.10
2022-10-13T08:01:31.294Z,14.10
2022-10-13T08:04:01.019Z,14.00
2022-10-13T08:06:33.421Z,14.10
2022-10-13T08:09:04.346Z,14.20
2022-10-13T08:11:34.347Z,14.10
2022-10-13T08:14:04.087Z,14.30
2022-10-13T08:16:35.108Z,14.10
2022-10-13T08:19:04.920Z,14.20
2022-10-13T08:21:57.707Z,14.30
2022-10-13T08:24:29.502Z,14.40
2022-10-13T08:26:59.653Z,14.50
2022-10-13T08:29:29.587Z,14.60
2022-10-13T08:31:59.557Z,14.60
2022-10-13T08:34:29.503Z,14.80
2022-10-13T08:37:01.875Z,14.90
2022-10-13T08:39:32.571Z,15.10
2022-10-13T08:42:03.496Z,15.30
2022-10-13T08:47:41.127Z,15.50
2022-10-13T08:50:16.384Z,15.50
2022-10-13T08:52:52.687Z,15.60
2022-10-13T08:55:33.137Z,15.80
2022-10-13T08:58:04.570Z,15.70
2022-10-13T09:00:34.388Z,15.90
2022-10-13T09:03:29.072Z,16.10
2022-10-13T09:06:06.624Z,16.20
2022-10-13T09:08:44.051Z,16.20
2022-10-13T09:11:15.390Z,16.30
2022-10-13T09:13:45.265Z,16.30
2022-10-13T09:16:15.395Z,16.30
2022-10-13T09:18:45.124Z,16.40
2022-10-13T09:21:22.098Z,16.30
2022-10-13T09:23:56.650Z,16.30
2022-10-13T09:26:27.916Z,16.60
2022-10-13T09:28:57.703Z,16.70
2022-10-13T09:31:32.164Z,16.40
2022-10-13T09:34:03.288Z,16.40
2022-10-13T09:36:33.423Z,16.70
2022-10-13T09:39:17.487Z,16.70
2022-10-13T09:41:48.013Z,16.80
2022-10-13T09:44:24.268Z,16.60
2022-10-13T09:46:59.846Z,16.80
2022-10-13T09:49:39.259Z,16.60
2022-10-13T09:52:18.937Z,16.50
2022-10-13T09:54:54.024Z,16.60
2022-10-13T09:57:36.620Z,16.60
2022-10-13T10:00:16.423Z,16.90
2022-10-13T10:02:51.401Z,16.70
2022-10-13T10:05:27.821Z,16.80
2022-10-13T10:08:02.870Z,16.70
2022-10-13T10:10:38.103Z,16.60
2022-10-13T10:13:08.017Z,16.50
2022-10-13T10:15:47.630Z,16.40
2022-10-13T10:18:22.825Z,16.50
2022-10-13T10:21:10.919Z,16.40
2022-10-13T10:23:49.075Z,16.40
2022-10-13T10:26:31.597Z,16.60
2022-10-13T10:29:17.603Z,16.40
2022-10-13T10:32:02.284Z,16.40
2022-10-13T10:34:39.226Z,16.50
2022-10-13T10:37:25.200Z,16.40
2022-10-13T10:40:04.946Z,16.40
2022-10-13T10:43:06.142Z,16.50
2022-10-13T10:45:41.123Z,16.60
2022-10-13T10:48:20.752Z,16.50
2022-10-13T10:50:52.593Z,16.60
2022-10-13T10:53:31.802Z,16.60
2022-10-13T10:56:06.991Z,16.80
2022-10-13T10:58:46.372Z,16.70
2022-10-13T11:01:31.100Z,16.70
2022-10-13T11:04:16.098Z,16.90
2022-10-13T11:06:45.890Z,17.00
2022-10-13T11:09:15.944Z,17.10
2022-10-13T11:11:45.963Z,16.90
2022-10-13T11:14:31.965Z,16.90
2022-10-13T11:17:11.930Z,16.90
2022-10-13T11:19:42.945Z,17.10
2022-10-13T11:22:18.375Z,17.10
2022-10-13T11:25:00.227Z,17.50
2022-10-13T11:27:45.796Z,17.40
2022-10-13T11:30:47.414Z,17.20
2022-10-13T11:33:36.847Z,17.40
2022-10-13T11:36:36.796Z,17.20
2022-10-13T11:42:12.775Z,17.30
2022-10-13T11:44:52.466Z,17.30
2022-10-13T11:47:53.913Z,16.80
2022-10-13T11:50:31.702Z,17.10
2022-10-13T11:53:18.949Z,17.10
2022-10-13T11:55:53.800Z,17.50
2022-10-13T11:58:26.114Z,17.50
2022-10-13T12:00:58.052Z,17.50
2022-10-13T12:03:33.478Z,17.60
2022-10-13T12:06:07.798Z,17.70
2022-10-13T12:08:38.702Z,17.70
2022-10-13T12:11:10.623Z,17.60
2022-10-13T12:13:40.575Z,17.50
2022-10-13T12:16:10.668Z,17.30
2022-10-13T12:18:44.129Z,17.20
2022-10-13T12:21:17.446Z,16.90
2022-10-13T12:23:47.349Z,17.30
2022-10-13T12:26:19.573Z,17.50
2022-10-13T12:28:55.815Z,17.80
2022-10-13T12:31:28.328Z,17.90
2022-10-13T12:34:03.091Z,18.10
2022-10-13T12:36:34.673Z,17.90
2022-10-13T12:39:07.751Z,17.80
2022-10-13T12:41:38.985Z,17.70
2022-10-13T12:44:10.605Z,17.90
2022-10-13T12:46:41.870Z,18.10
2022-10-13T12:52:14.555Z,18.00
2022-10-13T12:54:51.365Z,18.10
2022-10-13T12:57:24.555Z,18.00
2022-10-13T12:59:57.095Z,17.70
2022-10-13T13:02:28.552Z,18.00
2022-10-13T13:05:01.439Z,18.10
2022-10-13T13:07:33.704Z,17.90
2022-10-13T13:10:20.046Z,18.00
2022-10-13T13:12:51.319Z,17.80
2022-10-13T13:15:32.846Z,18.00
2022-10-13T13:18:42.201Z,17.60
2022-10-13T13:21:17.134Z,17.60
2022-10-13T13:23:52.801Z,17.90
2022-10-13T13:26:25.644Z,18.00
2022-10-13T13:28:56.976Z,17.90
2022-10-13T13:31:28.786Z,17.90
2022-10-13T13:33:58.650Z,17.90
2022-10-13T13:36:33.497Z,17.90
2022-10-13T13:39:03.246Z,18.00
2022-10-13T13:41:33.009Z,17.90
2022-10-13T13:44:02.827Z,17.90
2022-10-13T13:46:32.660Z,17.80
2022-10-13T13:49:02.827Z,17.80
2022-10-13T13:51:35.163Z,17.70
2022-10-13T13:54:04.930Z,17.60
2022-10-13T13:56:34.783Z,17.70
2022-10-13T13:59:04.518Z,17.60
2022-10-13T14:01:34.296Z,17.60
2022-10-13T14:04:04.119Z,17.50
2022-10-13T14:06:37.980Z,17.30
2022-10-13T14:09:08.407Z,17.40
2022-10-13T14:11:38.163Z,17.30
2022-10-13T14:14:07.902Z,17.30
2022-10-13T14:16:38.271Z,17.20
2022-10-13T14:19:08.403Z,17.00
2022-10-13T14:21:40.790Z,16.90
2022-10-13T14:24:12.590Z,16.90
2022-10-13T14:26:42.357Z,16.90
2022-10-13T14:29:12.273Z,16.70
2022-10-13T14:31:42.089Z,16.60
2022-10-13T14:34:11.848Z,16.50
2022-10-13T14:36:44.335Z,16.60
2022-10-13T14:39:14.141Z,16.50
2022-10-13T14:41:43.904Z,16.50
2022-10-13T14:44:15.505Z,16.40
2022-10-13T14:46:45.278Z,16.40
2022-10-13T14:49:15.213Z,16.50
2022-10-13T14:51:47.576Z,16.50
2022-10-13T14:54:17.359Z,16.40
2022-10-13T14:56:47.346Z,16.50
2022-10-13T14:59:17.947Z,16.50
2022-10-13T15:01:48.527Z,16.50
2022-10-13T15:04:18.233Z,16.40
2022-10-13T15:06:50.563Z,16.40
2022-10-13T15:09:25.503Z,16.30
2022-10-13T15:12:03.352Z,16.30
2022-10-13T15:14:33.053Z,16.30
2022-10-13T15:17:03.207Z,16.30
2022-10-13T15:19:32.929Z,16.30
2022-10-13T15:22:05.284Z,16.30
2022-10-13T15:24:34.969Z,16.30
2022-10-13T15:27:04.712Z,16.30
2022-10-13T15:29:34.447Z,16.30
2022-10-13T15:32:11.343Z,16.20
2022-10-13T15:34:42.037Z,16.20
2022-10-13T15:37:14.757Z,16.10
2022-10-13T15:39:44.466Z,16.20
2022-10-13T15:42:14.594Z,16.10
2022-10-13T15:45:08.901Z,16.10
2022-10-13T15:47:35.899Z,16.00
2022-10-13T15:50:05.825Z,16.00
2022-10-13T15:52:40.679Z,16.00
2022-10-13T15:55:11.511Z,16.00
2022-10-13T15:57:41.574Z,16.00
2022-10-13T16:00:14.240Z,16.00
2022-10-13T16:02:46.207Z,15.90
2022-10-13T16:05:16.124Z,15.90
2022-10-13T16:07:48.428Z,15.90
2022-10-13T16:10:18.373Z,15.80
2022-10-13T16:12:49.785Z,15.80
2022-10-13T16:15:20.227Z,15.80
2022-10-13T16:17:49.972Z,15.80
2022-10-13T16:20:19.908Z,15.70
2022-10-13T16:22:52.231Z,15.70
2022-10-13T16:25:22.034Z,15.60
2022-10-13T16:27:51.749Z,15.60
2022-10-13T16:30:21.468Z,15.50
2022-10-13T16:32:51.204Z,15.50
2022-10-13T16:35:20.959Z,15.40
2022-10-13T16:37:53.379Z,15.50
2022-10-13T16:40:23.178Z,15.50
2022-10-13T16:42:52.890Z,15.40
2022-10-13T16:45:41.151Z,15.30
2022-10-13T16:48:12.328Z,15.30
2022-10-13T16:50:42.046Z,15.40
2022-10-13T16:53:14.357Z,15.30
2022-10-13T16:55:44.162Z,15.30
2022-10-13T16:58:13.937Z,15.30
2022-10-13T17:00:43.864Z,15.20
2022-10-13T17:03:13.672Z,15.20
2022-10-13T17:05:43.414Z,15.20
2022-10-13T17:08:15.723Z,15.20
2022-10-13T17:10:45.425Z,15.10
2022-10-13T17:13:15.136Z,15.10
2022-10-13T17:15:52.041Z,15.10
2022-10-13T17:18:22.077Z,15.10
2022-10-13T17:20:56.089Z,15.10
2022-10-13T17:23:28.963Z,15.10
2022-10-13T17:26:03.414Z,15.00
2022-10-13T17:28:33.277Z,15.00
2022-10-13T17:31:05.512Z,14.90
2022-10-13T17:33:37.305Z,14.90
2022-10-13T17:36:10.166Z,15.00
2022-10-13T17:38:42.634Z,15.00
2022-10-13T17:41:13.636Z,15.00
2022-10-13T17:43:44.361Z,14.90
2022-10-13T17:46:35.573Z,14.90
2022-10-13T17:49:06.274Z,14.90
2022-10-13T17:51:36.195Z,14.90
2022-10-13T17:54:14.495Z,14.90
2022-10-13T17:56:45.743Z,14.90
2022-10-13T17:59:16.116Z,14.90
2022-10-13T18:01:46.662Z,14.90
2022-10-13T18:04:18.955Z,14.80
2022-10-13T18:06:48.852Z,14.80
2022-10-13T18:09:24.202Z,14.80
2022-10-13T18:11:56.546Z,14.90
2022-10-13T18:14:27.594Z,14.90
2022-10-13T18:16:57.364Z,14.80
2022-10-13T18:19:27.263Z,14.80
2022-10-13T18:21:56.992Z,14.80
2022-10-13T18:24:29.361Z,14.70
2022-10-13T18:26:59.140Z,14.70
2022-10-13T18:29:28.886Z,14.80
2022-10-13T18:31:59.012Z,14.80
2022-10-13T18:34:28.823Z,14.80
2022-10-13T18:36:58.552Z,14.70
2022-10-13T18:39:31.944Z,14.70
2022-10-13T18:42:01.681Z,14.70
2022-10-13T18:44:31.526Z,14.70
2022-10-13T18:47:01.256Z,14.70
2022-10-13T18:49:33.362Z,14.70
2022-10-13T18:52:04.035Z,14.70
2022-10-13T18:54:36.435Z,14.70
2022-10-13T18:57:06.200Z,14.70
2022-10-13T18:59:38.703Z,14.60
2022-10-13T19:02:08.518Z,14.70
2022-10-13T19:04:38.522Z,14.70
2022-10-13T19:07:08.360Z,14.70
2022-10-13T19:09:40.679Z,14.60
2022-10-13T19:12:10.833Z,14.60
2022-10-13T19:14:40.549Z,14.60
2022-10-13T19:17:10.260Z,14.60
2022-10-13T19:19:41.481Z,14.70
2022-10-13T19:22:11.377Z,14.60
2022-10-13T19:24:43.774Z,14.60
2022-10-13T19:27:13.501Z,14.60
2022-10-13T19:29:43.268Z,14.60
2022-10-13T19:32:12.994Z,14.50
2022-10-13T19:34:42.744Z,14.60
2022-10-13T19:37:12.514Z,14.60
2022-10-13T19:39:44.946Z,14.60
2022-10-13T19:42:14.707Z,14.60
2022-10-13T19:44:44.452Z,14.60
2022-10-13T19:47:14.146Z,14.60
2022-10-13T19:49:43.882Z,14.60
2022-10-13T19:52:13.597Z,14.50
2022-10-13T19:54:45.903Z,14.50
2022-10-13T19:57:15.686Z,14.50
2022-10-13T19:59:47.771Z,14.40
2022-10-13T20:02:18.475Z,14.40
2022-10-13T20:04:48.656Z,14.30
2022-10-13T20:07:18.611Z,14.30
2022-10-13T20:09:51.116Z,14.20
2022-10-13T20:12:20.823Z,14.20
2022-10-13T20:14:50.548Z,14.20
2022-10-13T20:17:20.436Z,14.20
2022-10-13T20:19:50.327Z,14.10
2022-10-13T20:22:20.154Z,14.10
2022-10-13T20:24:52.543Z,14.10
2022-10-13T20:27:22.869Z,14.10
2022-10-13T20:29:52.850Z,14.00
2022-10-13T20:32:22.711Z,14.00
2022-10-13T20:34:52.475Z,14.00
2022-10-13T20:37:22.660Z,14.00
2022-10-13T20:39:57.168Z,14.00
2022-10-13T20:42:26.954Z,14.00
2022-10-13T20:44:56.697Z,14.00
2022-10-13T20:47:26.463Z,14.00
2022-10-13T20:49:56.250Z,13.90
2022-10-13T20:52:26.038Z,13.90
2022-10-13T20:54:58.420Z,13.90
2022-10-13T20:57:28.117Z,13.90
2022-10-13T20:59:57.825Z,13.90
2022-10-13T21:02:27.735Z,13.90
2022-10-13T21:04:57.460Z,13.90
2022-10-13T21:07:28.440Z,13.90
2022-10-13T21:10:00.776Z,13.90
2022-10-13T21:12:30.484Z,13.90
2022-10-13T21:15:00.238Z,13.90
2022-10-13T21:17:31.963Z,13.90
2022-10-13T21:20:01.738Z,13.90
2022-10-13T21:22:31.460Z,13.80
2022-10-13T21:25:03.758Z,13.80
2022-10-13T21:27:33.484Z,13.80
2022-10-13T21:30:03.295Z,13.80
2022-10-13T21:32:33.289Z,13.80
2022-10-13T21:35:02.995Z,13.80
2022-10-13T21:37:35.947Z,13.80
2022-10-13T21:40:09.738Z,13.80
2022-10-13T21:42:39.781Z,13.80
2022-10-13T21:45:11.114Z,13.80
2022-10-13T21:47:40.925Z,13.80
2022-10-13T21:50:11.361Z,13.80
2022-10-13T21:52:41.188Z,13.80
2022-10-13T21:55:14.186Z,13.70
2022-10-13T21:57:43.908Z,13.70
2022-10-13T22:00:15.354Z,13.70
2022-10-13T22:02:45.177Z,13.70
2022-10-13T22:05:14.944Z,13.70
2022-10-13T22:07:44.719Z,13.70
2022-10-13T22:10:17.063Z,13.70
2022-10-13T22:12:46.979Z,13.70
2022-10-13T22:15:16.808Z,13.70
2022-10-13T22:17:46.516Z,13.80
2022-10-13T22:20:16.264Z,13.80
2022-10-13T22:22:46.032Z,13.80
2022-10-13T22:25:18.533Z,13.80
2022-10-13T22:27:48.506Z,13.70
2022-10-13T22:30:18.463Z,13.70
2022-10-13T22:32:48.362Z,13.70
2022-10-13T22:35:18.354Z,13.70
2022-10-13T22:37:48.104Z,13.70
2022-10-13T22:40:20.487Z,13.70
2022-10-13T22:42:50.236Z,13.80
2022-10-13T22:45:20.140Z,13.70
2022-10-13T22:47:51.586Z,13.70
2022-10-13T22:50:21.737Z,13.70
2022-10-13T22:52:51.509Z,13.70
2022-10-13T22:55:23.851Z,13.70
2022-10-13T22:57:53.558Z,13.70
2022-10-13T23:00:23.477Z,13.70
2022-10-13T23:02:53.196Z,13.70
2022-10-13T23:05:23.135Z,13.70
2022-10-13T23:07:52.918Z,13.60
2022-10-13T23:10:25.381Z,13.70
2022-10-13T23:12:55.101Z,13.70
2022-10-13T23:15:24.808Z,13.70
2022-10-13T23:17:57.386Z,13.70
2022-10-13T23:20:27.124Z,13.70
2022-10-13T23:22:56.893Z,13.70
2022-10-13T23:25:29.180Z,13.60
2022-10-13T23:27:58.887Z,13.60
2022-10-13T23:30:28.706Z,13.60
2022-10-13T23:32:58.536Z,13.60
2022-10-13T23:35:28.327Z,13.60
2022-10-13T23:37:58.039Z,13.60
2022-10-13T23:40:30.429Z,13.60
2022-10-13T23:43:01.374Z,13.60
2022-10-13T23:45:31.089Z,13.60
2022-10-13T23:48:00.792Z,13.50
2022-10-13T23:50:30.535Z,13.50
2022-10-13T23:53:00.346Z,13.50
2022-10-13T23:55:32.777Z,13.50
2022-10-13T23:58:02.537Z,13.50
